Map

Track Data

SID SEASON NUMBER BASIN SUBBASIN NAME ISO_TIME NATURE LAT LON WMO_WIND WMO_PRES WMO_AGENCY TRACK_TYPE DIST2LAND LANDFALL IFLAG USA_AGENCY USA_ATCF_ID USA_LAT USA_LON USA_RECORD USA_STATUS USA_WIND USA_PRES USA_SSHS USA_R34_NE USA_R34_SE USA_R34_SW USA_R34_NW USA_R50_NE USA_R50_SE USA_R50_SW USA_R50_NW USA_R64_NE USA_R64_SE USA_R64_SW USA_R64_NW USA_POCI USA_ROCI USA_RMW USA_EYE TOKYO_LAT TOKYO_LON TOKYO_GRADE TOKYO_WIND TOKYO_PRES TOKYO_R50_DIR TOKYO_R50_LONG TOKYO_R50_SHORT TOKYO_R30_DIR TOKYO_R30_LONG TOKYO_R30_SHORT TOKYO_LAND CMA_LAT CMA_LON CMA_CAT CMA_WIND CMA_PRES HKO_LAT HKO_LON HKO_CAT HKO_WIND HKO_PRES NEWDELHI_LAT NEWDELHI_LON NEWDELHI_GRADE NEWDELHI_WIND NEWDELHI_PRES NEWDELHI_CI NEWDELHI_DP NEWDELHI_POCI REUNION_LAT REUNION_LON REUNION_TYPE REUNION_WIND REUNION_PRES REUNION_TNUM REUNION_CI REUNION_RMW REUNION_R34_NE REUNION_R34_SE REUNION_R34_SW REUNION_R34_NW REUNION_R50_NE REUNION_R50_SE REUNION_R50_SW REUNION_R50_NW REUNION_R64_NE REUNION_R64_SE REUNION_R64_SW REUNION_R64_NW BOM_LAT BOM_LON BOM_TYPE BOM_WIND BOM_PRES BOM_TNUM BOM_CI BOM_RMW BOM_R34_NE BOM_R34_SE BOM_R34_SW BOM_R34_NW BOM_R50_NE BOM_R50_SE BOM_R50_SW BOM_R50_NW BOM_R64_NE BOM_R64_SE BOM_R64_SW BOM_R64_NW BOM_ROCI BOM_POCI BOM_EYE BOM_POS_METHOD BOM_PRES_METHOD NADI_LAT NADI_LON NADI_CAT NADI_WIND NADI_PRES WELLINGTON_LAT WELLINGTON_LON WELLINGTON_WIND WELLINGTON_PRES DS824_LAT DS824_LON DS824_STAGE DS824_WIND DS824_PRES TD9636_LAT TD9636_LON TD9636_STAGE TD9636_WIND TD9636_PRES TD9635_LAT TD9635_LON TD9635_WIND TD9635_PRES TD9635_ROCI NEUMANN_LAT NEUMANN_LON NEUMANN_CLASS NEUMANN_WIND NEUMANN_PRES MLC_LAT MLC_LON MLC_CLASS MLC_WIND MLC_PRES USA_GUST BOM_GUST BOM_GUST_PER REUNION_GUST REUNION_GUST_PER USA_SEAHGT USA_SEARAD_NE USA_SEARAD_SE USA_SEARAD_SW USA_SEARAD_NW STORM_SPEED STORM_DIR
1949235N18300 1949 59 NA NA NOT_NAMED 1949-08-23 06:00:00 TS 18.0000 -60.0000 50 hurdat_atl main 592 517 O_____________ hurdat_atl AL021949 18.0000 -60.0000 TS 50 0 14 278
1949235N18300 1949 59 NA NA NOT_NAMED 1949-08-23 09:00:00 TS 18.0957 -60.7148 main 517 443 P_____________ AL021949 18.0957 -60.7148 TS 50 0 13 279
1949235N18300 1949 59 NA NA NOT_NAMED 1949-08-23 12:00:00 TS 18.2000 -61.4000 50 hurdat_atl main 443 380 O_____________ hurdat_atl AL021949 18.2000 -61.4000 TS 50 0 13 280
1949235N18300 1949 59 NA CS NOT_NAMED 1949-08-23 15:00:00 TS 18.3270 -62.0428 main 380 306 P_____________ AL021949 18.3270 -62.0428 TS 52 0 13 284
1949235N18300 1949 59 NA CS NOT_NAMED 1949-08-23 18:00:00 TS 18.5000 -62.7000 55 hurdat_atl main 306 234 O_____________ hurdat_atl AL021949 18.5000 -62.7000 TS 55 0 14 287
1949235N18300 1949 59 NA CS NOT_NAMED 1949-08-23 21:00:00 TS 18.7198 -63.4277 main 234 162 P_____________ AL021949 18.7198 -63.4277 TS 57 0 15 289
1949235N18300 1949 59 NA NA NOT_NAMED 1949-08-24 00:00:00 TS 19.0000 -64.2000 60 hurdat_atl main 162 118 O_____________ hurdat_atl AL021949 19.0000 -64.2000 TS 60 0 16 292
1949235N18300 1949 59 NA NA NOT_NAMED 1949-08-24 03:00:00 TS 19.3274 -65.0002 main 118 116 P_____________ AL021949 19.3274 -65.0002 TS 60 0 17 295
1949235N18300 1949 59 NA NA NOT_NAMED 1949-08-24 06:00:00 TS 19.7000 -65.8000 60 hurdat_atl main 145 145 O_____________ hurdat_atl AL021949 19.7000 -65.8000 TS 60 0 17 297
1949235N18300 1949 59 NA NA NOT_NAMED 1949-08-24 09:00:00 TS 20.0923 -66.5727 main 190 190 P_____________ AL021949 20.0923 -66.5727 TS 62 0 16 300
1949235N18300 1949 59 NA NA NOT_NAMED 1949-08-24 12:00:00 TS 20.5000 -67.3000 65 hurdat_atl main 233 222 O_____________ hurdat_atl AL021949 20.5000 -67.3000 HU 65 1 15 302
1949235N18300 1949 59 NA NA NOT_NAMED 1949-08-24 15:00:00 TS 20.8997 -67.9729 main 224 222 P_____________ AL021949 20.8997 -67.9729 HU 67 1 15 303
1949235N18300 1949 59 NA NA NOT_NAMED 1949-08-24 18:00:00 TS 21.3000 -68.6000 70 hurdat_atl main 235 232 O_____________ hurdat_atl AL021949 21.3000 -68.6000 HU 70 1 14 305
1949235N18300 1949 59 NA NA NOT_NAMED 1949-08-24 21:00:00 TS 21.6921 -69.2006 main 249 245 P_____________ AL021949 21.6921 -69.2006 HU 70 1 14 306
1949235N18300 1949 59 NA NA NOT_NAMED 1949-08-25 00:00:00 TS 22.1000 -69.8000 70 hurdat_atl main 270 267 O_____________ hurdat_atl AL021949 22.1000 -69.8000 HU 70 1 14 307
1949235N18300 1949 59 NA NA NOT_NAMED 1949-08-25 03:00:00 TS 22.5648 -70.4424 main 310 280 P_____________ AL021949 22.5648 -70.4424 HU 72 1 15 307
1949235N18300 1949 59 NA NA NOT_NAMED 1949-08-25 06:00:00 TS 23.0000 -71.1000 75 hurdat_atl main 280 268 O_____________ hurdat_atl AL021949 23.0000 -71.1000 HU 75 1 14 303
1949235N18300 1949 59 NA NA NOT_NAMED 1949-08-25 09:00:00 TS 23.3372 -71.7504 main 265 265 P_____________ AL021949 23.3372 -71.7504 HU 75 1 13 297
1949235N18300 1949 59 NA NA NOT_NAMED 1949-08-25 12:00:00 TS 23.6000 -72.4000 75 hurdat_atl main 275 273 O_____________ hurdat_atl AL021949 23.6000 -72.4000 HU 75 1 13 292
1949235N18300 1949 59 NA NA NOT_NAMED 1949-08-25 15:00:00 TS 23.8297 -73.0502 main 290 290 P_____________ AL021949 23.8297 -73.0502 HU 77 1 13 289
1949235N18300 1949 59 NA NA NOT_NAMED 1949-08-25 18:00:00 TS 24.0000 -73.7000 80 hurdat_atl main 317 317 O_____________ hurdat_atl AL021949 24.0000 -73.7000 HU 80 1 12 283
1949235N18300 1949 59 NA NA NOT_NAMED 1949-08-25 21:00:00 TS 24.0996 -74.3431 main 340 275 P_____________ AL021949 24.0996 -74.3431 HU 85 2 12 280
1949235N18300 1949 59 NA NA NOT_NAMED 1949-08-26 00:00:00 TS 24.2000 -75.0000 90 hurdat_atl main 275 202 O_____________ hurdat_atl AL021949 24.2000 -75.0000 HU 90 2 13 282
1949235N18300 1949 59 NA NA NOT_NAMED 1949-08-26 03:00:00 TS 24.3698 -75.6927 main 202 131 P_____________ AL021949 24.3698 -75.6927 HU 95 2 13 287
1949235N18300 1949 59 NA NA NOT_NAMED 1949-08-26 06:00:00 TS 24.6000 -76.4000 100 hurdat_atl main 131 74 O_____________ hurdat_atl AL021949 24.6000 -76.4000 HU 100 3 14 291
1949235N18300 1949 59 NA NA NOT_NAMED 1949-08-26 09:00:00 TS 24.8774 -77.1151 main 74 23 P_____________ AL021949 24.8774 -77.1151 HU 105 3 14 295
1949235N18300 1949 59 NA NA NOT_NAMED 1949-08-26 12:00:00 TS 25.2000 -77.8000 110 hurdat_atl main 23 15 O_____________ hurdat_atl AL021949 25.2000 -77.8000 HU 110 3 13 299
1949235N18300 1949 59 NA NA NOT_NAMED 1949-08-26 15:00:00 TS 25.5307 -78.4151 main 53 53 P_____________ AL021949 25.5307 -78.4151 HU 112 3 13 303
1949235N18300 1949 59 NA NA NOT_NAMED 1949-08-26 18:00:00 TS 25.9000 -79.0000 115 hurdat_atl main 109 49 O_____________ hurdat_atl AL021949 25.9000 -79.0000 HU 115 4 14 308
1949235N18300 1949 59 NA NA NOT_NAMED 1949-08-26 21:00:00 TS 26.4141 -79.6702 main 39 9 P_____________ AL021949 26.4141 -79.6702 HU 115 4 14 308
1949235N18300 1949 59 NA NA NOT_NAMED 1949-08-26 23:00:00 TS 26.6000 -80.0000 115 954 hurdat_atl main 9 0 O_____________ hurdat_atl AL021949 26.6000 -80.0000 L HU 115 954 4 9 296
1949235N18300 1949 59 NA NA NOT_NAMED 1949-08-27 00:00:00 TS 26.6000 -80.1000 115 954 hurdat_atl main 0 0 O_____________ hurdat_atl AL021949 26.6000 -80.1000 HU 115 954 4 9 295
1949235N18300 1949 59 NA NA NOT_NAMED 1949-08-27 03:00:00 TS 26.8438 -80.5881 main 0 0 P_____________ AL021949 26.8438 -80.5881 HU 100 959 3 12 306
1949235N18300 1949 59 NA NA NOT_NAMED 1949-08-27 06:00:00 TS 27.3000 -81.2000 85 965 hurdat_atl main 0 0 O_____________ hurdat_atl AL021949 27.3000 -81.2000 HU 85 965 2 14 311
1949235N18300 1949 59 NA NA NOT_NAMED 1949-08-27 09:00:00 TS 27.7350 -81.7374 main 0 0 P_____________ AL021949 27.7350 -81.7374 HU 75 969 1 13 316
1949235N18300 1949 59 NA NA NOT_NAMED 1949-08-27 12:00:00 TS 28.2000 -82.2000 65 974 hurdat_atl main 0 0 O_____________ hurdat_atl AL021949 28.2000 -82.2000 HU 65 974 1 12 321
1949235N18300 1949 59 NA NA NOT_NAMED 1949-08-27 15:00:00 TS 28.6274 -82.5677 main 0 0 P_____________ AL021949 28.6274 -82.5677 HU 65 977 1 10 330
1949235N18300 1949 59 NA GM NOT_NAMED 1949-08-27 18:00:00 TS 29.1000 -82.8000 65 980 hurdat_atl main 0 0 O_____________ hurdat_atl AL021949 29.1000 -82.8000 HU 65 980 1 11 344
1949235N18300 1949 59 NA NA NOT_NAMED 1949-08-27 21:00:00 TS 29.6549 -82.8954 main 0 0 P_____________ AL021949 29.6549 -82.8954 HU 65 983 1 12 356
1949235N18300 1949 59 NA NA NOT_NAMED 1949-08-28 00:00:00 TS 30.3000 -82.9000 65 987 hurdat_atl main 0 0 O_____________ hurdat_atl AL021949 30.3000 -82.9000 HU 65 987 1 14 359
1949235N18300 1949 59 NA NA NOT_NAMED 1949-08-28 03:00:00 TS 31.0350 -82.9223 main 0 0 P_____________ AL021949 31.0350 -82.9223 HU 65 987 1 15 0
1949235N18300 1949 59 NA NA NOT_NAMED 1949-08-28 06:00:00 TS 31.8000 -82.9000 65 988 hurdat_atl main 0 0 O_____________ hurdat_atl AL021949 31.8000 -82.9000 HU 65 988 1 15 3
1949235N18300 1949 59 NA NA NOT_NAMED 1949-08-28 09:00:00 TS 32.4999 -82.8371 main 0 0 P_____________ AL021949 32.4999 -82.8371 HU 60 992 0 14 7
1949235N18300 1949 59 NA NA NOT_NAMED 1949-08-28 12:00:00 TS 33.2000 -82.7000 55 996 hurdat_atl main 0 0 O_____________ hurdat_atl AL021949 33.2000 -82.7000 TS 55 996 0 15 9
1949235N18300 1949 59 NA NA NOT_NAMED 1949-08-28 15:00:00 TS 33.9267 -82.5525 main 0 0 P_____________ AL021949 33.9267 -82.5525 TS 52 998 0 16 15
1949235N18300 1949 59 NA NA NOT_NAMED 1949-08-28 18:00:00 TS 34.7000 -82.2000 50 1000 hurdat_atl main 0 0 O_____________ hurdat_atl AL021949 34.7000 -82.2000 TS 50 1000 0 18 28
1949235N18300 1949 59 NA NA NOT_NAMED 1949-08-28 21:00:00 TS 35.4969 -81.5398 main 0 0 P_____________ AL021949 35.4969 -81.5398 TS 50 1001 0 21 37
1949235N18300 1949 59 NA NA NOT_NAMED 1949-08-29 00:00:00 TS 36.4000 -80.6000 50 1002 hurdat_atl main 0 0 O_____________ hurdat_atl AL021949 36.4000 -80.6000 TS 50 1002 0 26 41
1949235N18300 1949 59 NA NA NOT_NAMED 1949-08-29 03:00:00 TS 37.4646 -79.4031 main 0 0 P_____________ AL021949 37.4646 -79.4031 TS 50 1001 0 29 41
1949235N18300 1949 59 NA NA NOT_NAMED 1949-08-29 06:00:00 TS 38.6000 -78.2000 50 1000 hurdat_atl main 0 0 O_____________ hurdat_atl AL021949 38.6000 -78.2000 TS 50 1000 0 26 34
1949235N18300 1949 59 NA NA NOT_NAMED 1949-08-29 09:00:00 TS 39.6325 -77.5080 main 0 0 P_____________ AL021949 39.6325 -77.5080 TS 50 999 0 25 29
1949235N18300 1949 59 NA NA NOT_NAMED 1949-08-29 12:00:00 TS 40.8000 -76.6000 50 998 hurdat_atl main 0 0 O_____________ hurdat_atl AL021949 40.8000 -76.6000 TS 50 998 0 33 39
1949235N18300 1949 59 NA NA NOT_NAMED 1949-08-29 15:00:00 TS 42.2442 -74.7568 main 0 0 P_____________ AL021949 42.2442 -74.7568 TS 47 0 43 45
1949235N18300 1949 59 NA NA NOT_NAMED 1949-08-29 18:00:00 ET 43.8000 -72.5000 45 hurdat_atl main 0 0 O_____________ hurdat_atl AL021949 43.8000 -72.5000 EX 45 -4 45 46
1949235N18300 1949 59 NA NA NOT_NAMED 1949-08-29 21:00:00 ET 45.3229 -70.2887 main 0 0 P_____________ AL021949 45.3229 -70.2887 EX 45 -4 43 45
1949235N18300 1949 59 NA NA NOT_NAMED 1949-08-30 00:00:00 ET 46.8000 -68.2000 45 hurdat_atl main 0 0 O_____________ hurdat_atl AL021949 46.8000 -68.2000 EX 45 -4 39 43
1949235N18300 1949 59 NA NA NOT_NAMED 1949-08-30 03:00:00 ET 48.1685 -66.3968 main 0 0 P_____________ AL021949 48.1685 -66.3968 EX 45 -4 35 39
1949235N18300 1949 59 NA NA NOT_NAMED 1949-08-30 06:00:00 ET 49.5000 -64.9000 45 hurdat_atl main 34 0 O_____________ hurdat_atl AL021949 49.5000 -64.9000 EX 45 -4 32 33
1949235N18300 1949 59 NA NA NOT_NAMED 1949-08-30 09:00:00 ET 50.9039 -63.6875 main 0 0 P_____________ AL021949 50.9039 -63.6875 EX 45 -4 31 29
1949235N18300 1949 59 NA NA NOT_NAMED 1949-08-30 12:00:00 ET 52.2000 -62.5000 45 hurdat_atl main 0 0 O_____________ hurdat_atl AL021949 52.2000 -62.5000 EX 45 -4 29 34
1949235N18300 1949 59 NA NA NOT_NAMED 1949-08-30 15:00:00 ET 53.2958 -61.0063 main 0 0 P_____________ AL021949 53.2958 -61.0063 EX 42 -4 27 46
1949235N18300 1949 59 NA NA NOT_NAMED 1949-08-30 18:00:00 ET 54.1000 -59.2000 40 hurdat_atl main 0 0 O_____________ hurdat_atl AL021949 54.1000 -59.2000 EX 40 -4 27 61
1949235N18300 1949 59 NA NA NOT_NAMED 1949-08-30 21:00:00 ET 54.5956 -56.9757 main 19 19 P_____________ AL021949 54.5956 -56.9757 EX 37 -4 27 75
1949235N18300 1949 59 NA NA NOT_NAMED 1949-08-31 00:00:00 ET 54.8000 -54.7000 35 hurdat_atl main 157 157 O_____________ hurdat_atl AL021949 54.8000 -54.7000 EX 35 -4 24 84
1949235N18300 1949 59 NA NA NOT_NAMED 1949-08-31 03:00:00 ET 54.8377 -52.8109 main 246 246 P_____________ AL021949 54.8377 -52.8109 EX 35 -4 21 90
1949235N18300 1949 59 NA NA NOT_NAMED 1949-08-31 06:00:00 ET 54.8000 -51.0000 35 hurdat_atl main 349 349 O_____________ hurdat_atl AL021949 54.8000 -51.0000 EX 35 -4 22 89
1949235N18300 1949 59 NA NA NOT_NAMED 1949-08-31 09:00:00 ET 54.8597 -49.0438 main 474 474 P_____________ AL021949 54.8597 -49.0438 EX 35 -4 24 88
1949235N18300 1949 59 NA NA NOT_NAMED 1949-08-31 12:00:00 ET 54.9000 -46.9000 35 hurdat_atl main 578 564 O_____________ hurdat_atl AL021949 54.9000 -46.9000 EX 35 -4 25 90
1949235N18300 1949 59 NA NA NOT_NAMED 1949-08-31 15:00:00 ET 54.8469 -44.6725 main 575 575 P_____________ AL021949 54.8469 -44.6725 EX 35 -4 28 94
1949235N18300 1949 59 NA NA NOT_NAMED 1949-08-31 18:00:00 ET 54.7000 -42.0000 35 hurdat_atl main 601 601 O_____________ hurdat_atl AL021949 54.7000 -42.0000 EX 35 -4 34 98
1949235N18300 1949 59 NA NA NOT_NAMED 1949-08-31 21:00:00 ET 54.3512 -38.8702 main 679 679 P_____________ AL021949 54.3512 -38.8702 EX 37 -4 41 100
1949235N18300 1949 59 NA NA NOT_NAMED 1949-09-01 00:00:00 ET 54.0000 -35.0000 40 hurdat_atl main 831 831 O_____________ hurdat_atl AL021949 54.0000 -35.0000 EX 40 -4 53 96
1949235N18300 1949 59 NA NA NOT_NAMED 1949-09-01 03:00:00 ET 53.7576 -29.9233 main 1054 986 P_____________ AL021949 53.7576 -29.9233 EX 42 -4 59 95
1949235N18300 1949 59 NA NA NOT_NAMED 1949-09-01 06:00:00 ET 53.5000 -25.0000 45 hurdat_atl main 973 751 O_____________ hurdat_atl AL021949 53.5000 -25.0000 EX 45 -4 51 95
1949235N18300 1949 59 NA NA NOT_NAMED 1949-09-01 09:00:00 ET 53.3095 -21.4143 main 738 588 P_____________ AL021949 53.3095 -21.4143 EX 47 -4 36 95
1949235N18300 1949 59 NA NA NOT_NAMED 1949-09-01 12:00:00 ET 53.2000 -19.0000 50 hurdat_atl main 581 496 O_____________ hurdat_atl AL021949 53.2000 -19.0000 EX 50 -4 22 95
1949235N18300 1949 59 NA NA NOT_NAMED 1949-09-01 15:00:00 ET 53.0983 -17.6947 main 496 448 P_____________ AL021949 53.0983 -17.6947 EX 50 -4 12 99
1949235N18300 1949 59 NA NA NOT_NAMED 1949-09-01 18:00:00 ET 53.0000 -17.0000 50 hurdat_atl main 448 O_____________ hurdat_atl AL021949 53.0000 -17.0000 EX 50 -4 9 103

About IBTrACS Database

This database is a web-friendly format of International Best Track Archive for Climate Stewardship (IBTrACS), a global best track data archive curated by NOAA dating back to 1842.

Updated: 2021-10-08